Map

Track Data

SID SEASON NUMBER BASIN SUBBASIN NAME ISO_TIME NATURE LAT LON WMO_WIND WMO_PRES WMO_AGENCY TRACK_TYPE DIST2LAND LANDFALL IFLAG USA_AGENCY USA_ATCF_ID USA_LAT USA_LON USA_RECORD USA_STATUS USA_WIND USA_PRES USA_SSHS USA_R34_NE USA_R34_SE USA_R34_SW USA_R34_NW USA_R50_NE USA_R50_SE USA_R50_SW USA_R50_NW USA_R64_NE USA_R64_SE USA_R64_SW USA_R64_NW USA_POCI USA_ROCI USA_RMW USA_EYE TOKYO_LAT TOKYO_LON TOKYO_GRADE TOKYO_WIND TOKYO_PRES TOKYO_R50_DIR TOKYO_R50_LONG TOKYO_R50_SHORT TOKYO_R30_DIR TOKYO_R30_LONG TOKYO_R30_SHORT TOKYO_LAND CMA_LAT CMA_LON CMA_CAT CMA_WIND CMA_PRES HKO_LAT HKO_LON HKO_CAT HKO_WIND HKO_PRES NEWDELHI_LAT NEWDELHI_LON NEWDELHI_GRADE NEWDELHI_WIND NEWDELHI_PRES NEWDELHI_CI NEWDELHI_DP NEWDELHI_POCI REUNION_LAT REUNION_LON REUNION_TYPE REUNION_WIND REUNION_PRES REUNION_TNUM REUNION_CI REUNION_RMW REUNION_R34_NE REUNION_R34_SE REUNION_R34_SW REUNION_R34_NW REUNION_R50_NE REUNION_R50_SE REUNION_R50_SW REUNION_R50_NW REUNION_R64_NE REUNION_R64_SE REUNION_R64_SW REUNION_R64_NW BOM_LAT BOM_LON BOM_TYPE BOM_WIND BOM_PRES BOM_TNUM BOM_CI BOM_RMW BOM_R34_NE BOM_R34_SE BOM_R34_SW BOM_R34_NW BOM_R50_NE BOM_R50_SE BOM_R50_SW BOM_R50_NW BOM_R64_NE BOM_R64_SE BOM_R64_SW BOM_R64_NW BOM_ROCI BOM_POCI BOM_EYE BOM_POS_METHOD BOM_PRES_METHOD NADI_LAT NADI_LON NADI_CAT NADI_WIND NADI_PRES WELLINGTON_LAT WELLINGTON_LON WELLINGTON_WIND WELLINGTON_PRES DS824_LAT DS824_LON DS824_STAGE DS824_WIND DS824_PRES TD9636_LAT TD9636_LON TD9636_STAGE TD9636_WIND TD9636_PRES TD9635_LAT TD9635_LON TD9635_WIND TD9635_PRES TD9635_ROCI NEUMANN_LAT NEUMANN_LON NEUMANN_CLASS NEUMANN_WIND NEUMANN_PRES MLC_LAT MLC_LON MLC_CLASS MLC_WIND MLC_PRES USA_GUST BOM_GUST BOM_GUST_PER REUNION_GUST REUNION_GUST_PER USA_SEAHGT USA_SEARAD_NE USA_SEARAD_SE USA_SEARAD_SW USA_SEARAD_NW STORM_SPEED STORM_DIR
1873070S10088 1873 9 SI MM NOT_NAMED 1873-03-11 06:00:00 NR -9.70000 88.0000 spur-split 1502 1502 _____O________ -1 -9.70000 88.0000 99 9.90000 1 235
1873070S10088 1873 9 SI MM NOT_NAMED 1873-03-11 09:00:00 NR -9.72247 87.9642 spur-split 1502 1502 _____P________ -1 -9.72247 87.9642 99 1 237
1873070S10088 1873 9 SI MM NOT_NAMED 1873-03-11 12:00:00 NR -9.75233 87.9212 spur-split 1518 1518 _____P________ -1 -9.75233 87.9212 99 1 233
1873070S10088 1873 9 SI MM NOT_NAMED 1873-03-11 15:00:00 NR -9.79696 87.8636 spur-split 1518 1518 _____P________ -1 -9.79696 87.8636 99 2 231
1873070S10088 1873 9 SI MM NOT_NAMED 1873-03-11 18:00:00 NR -9.86376 87.7841 spur-split 1533 1533 _____P________ -1 -9.86376 87.7841 99 2 229
1873070S10088 1873 9 SI MM NOT_NAMED 1873-03-11 21:00:00 NR -9.96009 87.6754 spur-split 1549 1549 _____P________ -1 -9.96009 87.6754 99 3 228
1873070S10088 1873 9 SI MM NOT_NAMED 1873-03-12 00:00:00 NR -10.0933 87.5301 spur-split 1573 1573 _____P________ -1 -10.0933 87.5301 99 5 227
1873070S10088 1873 9 SI MM NOT_NAMED 1873-03-12 03:00:00 NR -10.2709 87.3408 spur-split 1604 1604 _____P________ -1 -10.2709 87.3408 99 6 226
1873070S10088 1873 9 SI MM NOT_NAMED 1873-03-12 06:00:00 NR -10.5000 87.1000 spur-split 1635 1635 _____O________ -1 -10.5000 87.1000 99 9.90000 7 226
1873070S10088 1873 9 SI MM NOT_NAMED 1873-03-12 09:00:00 NR -10.7846 86.8035 spur-split 1681 1681 _____P________ -1 -10.7846 86.8035 99 9 226
1873070S10088 1873 9 SI MM NOT_NAMED 1873-03-12 12:00:00 NR -11.1147 86.4612 spur-split 1727 1727 _____P________ -1 -11.1147 86.4612 99 10 225
1873070S10088 1873 9 SI MM NOT_NAMED 1873-03-12 15:00:00 NR -11.4768 86.0863 spur-split 1789 1789 _____P________ -1 -11.4768 86.0863 99 11 225
1873070S10088 1873 9 SI MM NOT_NAMED 1873-03-12 18:00:00 NR -11.8575 85.6923 spur-split 1851 1851 _____P________ -1 -11.8575 85.6923 99 11 225
1873070S10088 1873 9 SI MM NOT_NAMED 1873-03-12 21:00:00 NR -12.2435 85.2928 spur-split 1906 1906 _____P________ -1 -12.2435 85.2928 99 11 225
1873070S10088 1873 9 SI MM NOT_NAMED 1873-03-13 00:00:00 NR -12.6213 84.9017 spur-split 1968 1968 _____P________ -1 -12.6213 84.9017 99 10 225
1873070S10088 1873 9 SI MM NOT_NAMED 1873-03-13 03:00:00 NR -12.9778 84.5327 spur-split 2029 2029 _____P________ -1 -12.9778 84.5327 99 10 225
1873070S10088 1873 9 SI MM NOT_NAMED 1873-03-13 06:00:00 NR -13.3000 84.2000 spur-split 2076 2076 _____O________ -1 -13.3000 84.2000 99 9.90000 8 225
1873070S10088 1873 9 SI MM NOT_NAMED 1873-03-13 09:00:00 NR -13.5142 83.9743 spur-split 2106 2106 _____P________ -1 -13.5142 83.9743 99 6 226
1873070S10088 1873 9 SI MM NOT_NAMED 1873-03-13 12:00:00 NR -13.6960 83.7833 spur-split 2137 2137 _____P________ -1 -13.6960 83.7833 99 5 225
1873070S10088 1873 9 SI MM NOT_NAMED 1873-03-13 15:00:00 NR -13.8561 83.6169 spur-split 2168 2168 _____P________ -1 -13.8561 83.6169 99 4 225
1873070S10088 1873 9 SI MM NOT_NAMED 1873-03-13 18:00:00 NR -14.0050 83.4650 spur-split 2183 2183 _____P________ -1 -14.0050 83.4650 99 4 224
1873070S10088 1873 9 SI MM NOT_NAMED 1873-03-13 21:00:00 NR -14.1534 83.3176 spur-split 2214 2214 _____P________ -1 -14.1534 83.3176 99 4 223
1873070S10088 1873 9 SI MM NOT_NAMED 1873-03-14 00:00:00 NR -14.3117 83.1644 spur-split 2230 2230 _____P________ -1 -14.3117 83.1644 99 5 223
1873070S10088 1873 9 SI MM NOT_NAMED 1873-03-14 03:00:00 NR -14.4904 82.9953 spur-split 2260 2260 _____P________ -1 -14.4904 82.9953 99 5 222
1873070S10088 1873 9 SI MM NOT_NAMED 1873-03-14 06:00:00 NR -14.7000 82.8000 spur-split 2291 2291 _____O________ -1 -14.7000 82.8000 99 9.90000 7 222
1873070S10088 1873 9 SI MM NOT_NAMED 1873-03-14 09:00:00 NR -15.0103 82.5099 spur-split 2337 2337 _____P________ -1 -15.0103 82.5099 99 9 222
1873070S10088 1873 9 SI MM NOT_NAMED 1873-03-14 12:00:00 NR -15.3520 82.1927 spur-split 2390 2390 _____P________ -1 -15.3520 82.1927 99 9 222
1873070S10088 1873 9 SI MM NOT_NAMED 1873-03-14 15:00:00 NR -15.7132 81.8585 spur-split 2423 2423 _____P________ -1 -15.7132 81.8585 99 10 222
1873070S10088 1873 9 SI MM NOT_NAMED 1873-03-14 18:00:00 NR -16.0821 81.5177 spur-split 2466 2466 _____P________ -1 -16.0821 81.5177 99 10 222
1873070S10088 1873 9 SI MM NOT_NAMED 1873-03-14 21:00:00 NR -16.4470 81.1807 spur-split 2498 2464 _____P________ -1 -16.4470 81.1807 99 10 222
1873070S10088 1873 9 SI MM NOT_NAMED 1873-03-15 00:00:00 NR -16.7960 80.8582 spur-split 2464 2426 _____P________ -1 -16.7960 80.8582 99 9 221
1873070S10088 1873 9 SI MM NOT_NAMED 1873-03-15 03:00:00 NR -17.1175 80.5610 spur-split 2426 2388 _____P________ -1 -17.1175 80.5610 99 8 221
1873070S10088 1873 9 SI MM NOT_NAMED 1873-03-15 06:00:00 NR -17.4000 80.3000 spur-split 2388 2362 _____O________ -1 -17.4000 80.3000 99 9.90000 7 221
1873070S10088 1873 9 SI MM NOT_NAMED 1873-03-15 09:00:00 NR -17.6349 80.0834 spur-split 2362 2337 _____P________ -1 -17.6349 80.0834 99 6 221
1873070S10088 1873 9 SI MM NOT_NAMED 1873-03-15 12:00:00 NR -17.8258 79.9082 spur-split 2337 2323 _____P________ -1 -17.8258 79.9082 99 5 221
1873070S10088 1873 9 SI MM NOT_NAMED 1873-03-15 15:00:00 NR -17.9789 79.7687 spur-split 2323 2311 _____P________ -1 -17.9789 79.7687 99 4 221
1873070S10088 1873 9 SI MM NOT_NAMED 1873-03-15 18:00:00 NR -18.1006 79.6590 spur-split 2311 2298 _____P________ -1 -18.1006 79.6590 99 3 220
1873070S10088 1873 9 SI MM NOT_NAMED 1873-03-15 21:00:00 NR -18.1974 79.5733 spur-split 2298 2286 _____P________ -1 -18.1974 79.5733 99 2 220
1873070S10088 1873 9 SI MM NOT_NAMED 1873-03-16 00:00:00 NR -18.2753 79.5056 spur-split 2286 2286 _____P________ -1 -18.2753 79.5056 99 2 219
1873070S10088 1873 9 SI MM NOT_NAMED 1873-03-16 03:00:00 NR -18.3408 79.4498 spur-split 2276 2274 _____P________ -1 -18.3408 79.4498 99 2 218
1873070S10088 1873 9 SI MM NOT_NAMED 1873-03-16 06:00:00 NR -18.4000 79.4000 reunion spur-split 2274 _____O________ -1 -18.4000 79.4000 99 9.90000 2 210

About IBTrACS Database

This database is a web-friendly format of International Best Track Archive for Climate Stewardship (IBTrACS), a global best track data archive curated by NOAA dating back to 1842.

Updated: 2021-10-21